Time;durP1;ratioP1;P1;durP2;ratioP2;P2;SDS_P1;SDS_P2;PMS_P1;PMS_P2;Temp;Humidity;BMP_temperature;BMP_pressure;BME280_temperature;BME280_humidity;BME280_pressure;Samples;Min_cycle;Max_cycle;Signal;HPM_P1;HPM_P2
2023/08/22 00:00:17;;;;;;;9.43;4.68;;;17.40;96.80;;;;;;5043555;27;20049;-82
2023/08/22 00:02:44;;;;;;;6.43;4.82;;;17.40;96.80;;;;;;5087464;27;20056;-82
2023/08/22 00:05:12;;;;;;;9.55;5.13;;;17.30;96.90;;;;;;5070622;27;20414;-83
2023/08/22 00:07:39;;;;;;;10.43;5.68;;;17.40;97.10;;;;;;5069290;27;20498;-82
2023/08/22 00:10:08;;;;;;;10.27;5.78;;;17.30;97.10;;;;;;5082461;27;20075;-83
2023/08/22 00:12:35;;;;;;;10.02;5.18;;;17.30;97.30;;;;;;5075061;27;20043;-83
2023/08/22 00:15:02;;;;;;;6.85;5.35;;;17.30;97.40;;;;;;5074445;27;20040;-82
2023/08/22 00:17:30;;;;;;;11.73;6.18;;;17.30;97.50;;;;;;5090291;27;20047;-83
2023/08/22 00:19:55;;;;;;;9.57;5.65;;;17.30;97.70;;;;;;5085249;27;20054;-82
2023/08/22 00:22:21;;;;;;;7.82;4.95;;;17.30;97.80;;;;;;5074915;27;20046;-83
2023/08/22 00:24:47;;;;;;;9.25;5.65;;;17.10;97.90;;;;;;5072618;27;20128;-82
2023/08/22 00:27:13;;;;;;;10.70;5.88;;;17.30;98.00;;;;;;5071665;27;20126;-82
2023/08/22 00:29:38;;;;;;;9.57;6.00;;;17.30;98.10;;;;;;5087835;27;20039;-82
2023/08/22 00:32:05;;;;;;;8.68;5.20;;;17.30;98.20;;;;;;5075674;27;20047;-83
2023/08/22 00:34:31;;;;;;;8.65;5.97;;;17.30;98.30;;;;;;5055520;27;20509;-84
2023/08/22 00:36:57;;;;;;;7.93;5.55;;;17.30;98.40;;;;;;5057174;27;20066;-82
2023/08/22 00:39:24;;;;;;;9.57;5.75;;;17.30;98.40;;;;;;5085141;27;20972;-82
2023/08/22 00:41:50;;;;;;;8.20;5.90;;;17.30;98.60;;;;;;5060509;27;20036;-82
2023/08/22 00:44:16;;;;;;;11.23;6.10;;;17.30;98.60;;;;;;5088899;27;20087;-82
2023/08/22 00:46:42;;;;;;;9.10;5.78;;;17.30;98.70;;;;;;5077684;27;20053;-83
2023/08/22 00:49:09;;;;;;;10.30;6.13;;;17.30;98.70;;;;;;5084839;27;20043;-80
2023/08/22 00:51:37;;;;;;;8.32;5.63;;;17.30;98.70;;;;;;5093105;27;20031;-81
2023/08/22 00:54:03;;;;;;;9.52;5.60;;;17.30;98.80;;;;;;5086940;27;21180;-81
2023/08/22 00:56:29;;;;;;;9.68;5.95;;;17.30;98.80;;;;;;5070449;27;21436;-81
2023/08/22 00:58:58;;;;;;;10.25;6.43;;;17.30;98.90;;;;;;5091705;27;20413;-84
2023/08/22 01:01:24;;;;;;;7.97;5.68;;;17.30;99.00;;;;;;5070967;27;20069;-81
2023/08/22 01:03:49;;;;;;;11.65;5.35;;;17.20;99.10;;;;;;5086393;27;20513;-81
2023/08/22 01:06:52;;;;;;;9.43;5.63;;;17.20;99.20;;;;;;5069266;27;20058;-81
2023/08/22 01:09:35;;;;;;;9.15;6.13;;;17.30;99.40;;;;;;5086034;27;20051;-81
2023/08/22 01:12:41;;;;;;;8.95;6.13;;;17.20;99.50;;;;;;5079951;27;20071;-81
2023/08/22 01:15:28;;;;;;;7.20;5.65;;;17.20;99.60;;;;;;5088004;27;20043;-81
2023/08/22 01:17:56;;;;;;;8.57;5.97;;;17.20;99.70;;;;;;5077601;27;21846;-82
2023/08/22 01:20:24;;;;;;;8.20;5.95;;;17.20;99.60;;;;;;5073853;27;20051;-82
2023/08/22 01:22:50;;;;;;;12.77;6.68;;;17.10;99.70;;;;;;5076736;27;20040;-82
2023/08/22 01:25:16;;;;;;;10.43;6.68;;;17.10;99.80;;;;;;5060652;27;20055;-82
2023/08/22 01:28:05;;;;;;;15.00;6.50;;;17.10;99.90;;;;;;5071453;27;20050;-82
2023/08/22 01:30:43;;;;;;;12.13;6.35;;;17.10;99.90;;;;;;5089598;27;20054;-82
2023/08/22 01:33:42;;;;;;;8.05;6.18;;;17.10;99.90;;;;;;5089715;27;20497;-81
2023/08/22 01:36:10;;;;;;;10.68;6.78;;;17.10;99.90;;;;;;5079451;27;20135;-82
2023/08/22 01:38:43;;;;;;;9.38;5.82;;;17.10;99.90;;;;;;5074782;27;20058;-82
2023/08/22 01:41:10;;;;;;;10.43;6.68;;;17.00;99.90;;;;;;5091096;27;20054;-82
2023/08/22 01:43:36;;;;;;;12.32;6.28;;;17.00;99.90;;;;;;5059090;27;20164;-82
2023/08/22 01:46:05;;;;;;;10.65;6.60;;;17.00;99.90;;;;;;5095891;27;20055;-82
2023/08/22 01:48:31;;;;;;;9.20;6.50;;;17.00;99.90;;;;;;5107643;27;20508;-82
2023/08/22 01:50:56;;;;;;;12.23;6.57;;;17.00;99.90;;;;;;5087340;27;20040;-82
2023/08/22 01:53:22;;;;;;;8.65;6.55;;;17.00;99.90;;;;;;5073847;27;20074;-82
2023/08/22 01:55:48;;;;;;;8.80;6.47;;;17.00;99.90;;;;;;5072374;27;20047;-82
2023/08/22 01:58:15;;;;;;;8.82;6.20;;;16.90;99.90;;;;;;5077145;27;20051;-82
2023/08/22 02:00:40;;;;;;;10.13;6.13;;;16.90;99.90;;;;;;5077038;27;20045;-81
2023/08/22 02:03:06;;;;;;;8.55;6.07;;;16.90;99.90;;;;;;5090850;27;20036;-81
2023/08/22 02:05:32;;;;;;;12.25;6.75;;;16.90;99.90;;;;;;5094267;27;20046;-81
2023/08/22 02:07:59;;;;;;;10.60;6.68;;;16.90;99.90;;;;;;5093440;27;20093;-81
2023/08/22 02:10:25;;;;;;;9.73;6.43;;;16.90;99.90;;;;;;5091947;27;20039;-81
2023/08/22 02:12:51;;;;;;;12.00;7.40;;;16.90;99.90;;;;;;5089063;27;20043;-81
2023/08/22 02:15:17;;;;;;;10.10;7.15;;;16.80;99.90;;;;;;5090909;27;20145;-81
2023/08/22 02:17:46;;;;;;;9.65;6.90;;;16.80;99.90;;;;;;5064115;27;20392;-80
2023/08/22 02:20:12;;;;;;;10.50;7.03;;;16.80;99.90;;;;;;5079974;27;20043;-80
2023/08/22 02:22:40;;;;;;;8.57;6.57;;;16.80;99.90;;;;;;5075365;27;20221;-81
2023/08/22 02:25:07;;;;;;;9.35;6.97;;;16.80;99.90;;;;;;5089641;27;20042;-81
2023/08/22 02:27:33;;;;;;;11.38;7.15;;;16.70;99.90;;;;;;5089123;27;20051;-81
2023/08/22 02:29:59;;;;;;;10.32;7.00;;;16.70;99.90;;;;;;5093301;27;20389;-82
2023/08/22 02:32:25;;;;;;;9.32;6.60;;;16.70;99.90;;;;;;5087930;27;20051;-81
2023/08/22 02:34:51;;;;;;;10.43;7.03;;;16.70;99.90;;;;;;5089874;27;20039;-80
2023/08/22 02:37:16;;;;;;;10.27;6.82;;;16.70;99.90;;;;;;5044331;27;20047;-80
2023/08/22 02:39:42;;;;;;;9.05;7.18;;;16.70;99.90;;;;;;5075425;27;20039;-81
2023/08/22 02:42:08;;;;;;;9.32;6.43;;;16.70;99.90;;;;;;5061913;27;20042;-81
2023/08/22 02:44:34;;;;;;;9.02;6.47;;;16.70;99.90;;;;;;5081212;27;20040;-81
2023/08/22 02:46:59;;;;;;;8.75;6.35;;;16.70;99.90;;;;;;5092747;27;20055;-81
2023/08/22 02:49:25;;;;;;;8.82;6.38;;;16.70;99.90;;;;;;5080334;27;20483;-81
2023/08/22 02:51:51;;;;;;;8.98;6.85;;;16.70;99.90;;;;;;5062452;27;20728;-81
2023/08/22 02:54:17;;;;;;;9.82;6.93;;;16.70;99.90;;;;;;5063544;27;20983;-81
2023/08/22 02:56:43;;;;;;;10.10;6.75;;;16.40;99.90;;;;;;5090994;27;20066;-81
2023/08/22 02:59:09;;;;;;;9.88;7.07;;;16.60;99.90;;;;;;5065343;27;20046;-81
2023/08/22 03:01:35;;;;;;;12.63;7.05;;;16.60;99.90;;;;;;5068527;27;20051;-80
2023/08/22 03:04:01;;;;;;;9.40;6.57;;;16.60;99.90;;;;;;5084698;27;20455;-81
2023/08/22 03:06:27;;;;;;;9.98;6.90;;;16.60;99.90;;;;;;5096989;27;20404;-81
2023/08/22 03:08:53;;;;;;;12.15;6.55;;;16.60;99.90;;;;;;5062298;27;20119;-81
2023/08/22 03:11:19;;;;;;;9.75;6.65;;;16.50;99.90;;;;;;5075386;27;20043;-81
2023/08/22 03:13:45;;;;;;;10.82;7.43;;;16.80;99.90;;;;;;5065220;27;20402;-81
2023/08/22 03:16:10;;;;;;;8.98;6.97;;;16.50;99.90;;;;;;5081013;27;20122;-82
2023/08/22 03:18:36;;;;;;;8.88;6.90;;;16.50;99.90;;;;;;5079634;27;20059;-81
2023/08/22 03:21:02;;;;;;;8.32;6.22;;;16.50;99.90;;;;;;5080274;27;20054;-81
2023/08/22 03:23:28;;;;;;;9.32;6.47;;;16.50;99.90;;;;;;5077079;27;20035;-81
2023/08/22 03:26:02;;;;;;;8.13;6.63;;;16.40;99.90;;;;;;5079511;27;20170;-82
2023/08/22 03:28:28;;;;;;;10.05;6.32;;;16.40;99.90;;;;;;5091264;27;20046;-82
2023/08/22 03:30:58;;;;;;;9.15;6.25;;;16.40;99.90;;;;;;5089450;27;20957;-82
2023/08/22 03:33:25;;;;;;;8.43;6.10;;;16.40;99.90;;;;;;5074504;27;20066;-81
2023/08/22 03:35:52;;;;;;;14.05;6.82;;;16.40;99.90;;;;;;5076675;27;20157;-82
2023/08/22 03:38:18;;;;;;;8.82;6.07;;;16.30;99.90;;;;;;5065076;27;20043;-82
2023/08/22 03:40:44;;;;;;;9.32;5.72;;;16.30;99.90;;;;;;5091184;27;20555;-82
2023/08/22 03:43:10;;;;;;;6.90;5.57;;;16.30;99.90;;;;;;5091848;27;20130;-82
2023/08/22 03:45:36;;;;;;;8.73;5.60;;;16.20;99.90;;;;;;5094216;27;20603;-83
2023/08/22 03:48:03;;;;;;;9.50;5.55;;;16.20;99.90;;;;;;5094517;27;20465;-82
2023/08/22 03:50:32;;;;;;;6.63;5.10;;;16.20;99.90;;;;;;5098467;27;20405;-80
2023/08/22 03:52:58;;;;;;;7.95;5.30;;;16.10;99.90;;;;;;5068085;27;21570;-82
2023/08/22 03:55:24;;;;;;;7.50;5.32;;;16.10;99.90;;;;;;5084649;27;20077;-82
2023/08/22 03:57:50;;;;;;;7.20;5.07;;;16.10;99.90;;;;;;5080503;27;20044;-81
2023/08/22 04:00:19;;;;;;;8.52;5.40;;;16.00;99.90;;;;;;5094716;27;20505;-81
2023/08/22 04:02:44;;;;;;;8.13;5.28;;;16.00;99.90;;;;;;5077701;27;20043;-87
2023/08/22 04:05:10;;;;;;;11.32;6.03;;;16.00;99.90;;;;;;5095610;27;20059;-84
2023/08/22 04:07:36;;;;;;;10.68;5.50;;;16.00;99.90;;;;;;5082249;27;20066;-87
2023/08/22 04:10:02;;;;;;;8.70;5.75;;;15.90;99.90;;;;;;5082350;27;20039;-84
2023/08/22 04:12:28;;;;;;;6.95;5.60;;;15.90;99.90;;;;;;5066673;27;20043;-86
2023/08/22 04:14:55;;;;;;;7.78;5.07;;;15.90;99.90;;;;;;5095454;27;20047;-86
2023/08/22 04:17:21;;;;;;;8.40;5.72;;;15.80;99.90;;;;;;5089115;27;20054;-85
2023/08/22 04:19:46;;;;;;;7.85;5.25;;;15.80;99.90;;;;;;5071906;27;20047;-87
2023/08/22 04:22:12;;;;;;;8.93;5.68;;;15.80;99.90;;;;;;5081703;27;20043;-86
2023/08/22 04:24:38;;;;;;;7.85;5.65;;;15.70;99.90;;;;;;5086520;27;21553;-85
2023/08/22 04:27:04;;;;;;;10.68;5.50;;;16.30;99.90;;;;;;5056500;27;20044;-87
2023/08/22 04:29:37;;;;;;;7.35;4.90;;;15.70;99.90;;;;;;5072630;27;20061;-82
2023/08/22 04:32:03;;;;;;;7.32;5.90;;;15.70;99.90;;;;;;5080640;27;20128;-81
2023/08/22 04:34:29;;;;;;;8.05;5.32;;;15.60;99.90;;;;;;5095928;27;20050;-82
2023/08/22 04:36:55;;;;;;;9.95;5.63;;;15.60;99.90;;;;;;5096799;27;20134;-82
2023/08/22 04:39:21;;;;;;;8.43;5.40;;;15.60;99.90;;;;;;5092851;27;20042;-83
2023/08/22 04:41:47;;;;;;;10.63;5.47;;;15.60;99.90;;;;;;5068938;27;20074;-82
2023/08/22 04:44:12;;;;;;;8.93;5.30;;;15.60;99.90;;;;;;5096466;27;20039;-82
2023/08/22 04:46:38;;;;;;;9.95;6.15;;;15.50;99.90;;;;;;5092415;27;20044;-83
2023/08/22 04:49:04;;;;;;;10.48;5.13;;;15.50;99.90;;;;;;5098019;27;20422;-83
2023/08/22 04:51:30;;;;;;;7.25;5.95;;;15.50;99.90;;;;;;5094868;27;20079;-82
2023/08/22 04:53:56;;;;;;;7.68;5.60;;;15.50;99.90;;;;;;5096252;28;20486;-80
2023/08/22 04:56:22;;;;;;;10.27;5.40;;;15.50;99.90;;;;;;5094617;28;20081;-82
2023/08/22 04:58:47;;;;;;;8.40;5.25;;;15.50;99.90;;;;;;5064865;27;20044;-81
2023/08/22 05:01:13;;;;;;;8.23;5.38;;;15.50;99.90;;;;;;5096509;27;20131;-81
2023/08/22 05:03:39;;;;;;;8.52;5.20;;;15.50;99.90;;;;;;5097861;27;20482;-81
2023/08/22 05:06:05;;;;;;;6.78;5.10;;;15.50;99.90;;;;;;5103326;27;20046;-83
2023/08/22 05:08:30;;;;;;;10.55;5.60;;;15.50;99.90;;;;;;5083357;27;20044;-82
2023/08/22 05:10:56;;;;;;;9.55;5.68;;;15.50;99.90;;;;;;5072625;27;20050;-81
2023/08/22 05:13:22;;;;;;;7.25;5.47;;;15.60;99.90;;;;;;5102289;27;20070;-82
2023/08/22 05:15:48;;;;;;;9.98;5.00;;;15.60;99.90;;;;;;5090252;27;20070;-81
2023/08/22 05:18:14;;;;;;;7.50;5.35;;;15.60;99.90;;;;;;5079502;27;20314;-81
2023/08/22 05:20:43;;;;;;;8.18;5.07;;;15.60;99.90;;;;;;5100072;27;20095;-82
2023/08/22 05:23:08;;;;;;;10.35;5.90;;;15.70;99.90;;;;;;5099261;27;20039;-81
2023/08/22 05:25:34;;;;;;;9.93;6.00;;;15.70;99.90;;;;;;5099146;27;20050;-83
2023/08/22 05:28:00;;;;;;;7.63;5.07;;;15.70;99.90;;;;;;5069852;27;20134;-79
2023/08/22 05:30:26;;;;;;;7.88;4.82;;;15.80;99.90;;;;;;5064473;27;20138;-80
2023/08/22 05:32:58;;;;;;;8.57;4.57;;;15.80;99.90;;;;;;5103585;27;20053;-79
2023/08/22 05:35:23;;;;;;;9.23;5.35;;;15.90;99.90;;;;;;5096001;27;20047;-75
2023/08/22 05:37:49;;;;;;;9.38;6.40;;;16.00;99.90;;;;;;5113842;27;20064;-79
2023/08/22 05:40:15;;;;;;;10.45;6.22;;;16.00;99.90;;;;;;5083000;27;20051;-78
2023/08/22 05:42:44;;;;;;;12.30;6.53;;;16.10;99.90;;;;;;5101267;27;20051;-77
2023/08/22 05:45:10;;;;;;;9.52;6.00;;;16.10;99.90;;;;;;5095210;27;20375;-75
2023/08/22 05:47:36;;;;;;;10.27;6.25;;;16.20;99.90;;;;;;5066909;27;20042;-75
2023/08/22 05:50:03;;;;;;;10.48;6.43;;;16.30;99.90;;;;;;5080830;27;20541;-76
2023/08/22 05:52:30;;;;;;;11.35;6.90;;;16.30;99.90;;;;;;5098463;27;20597;-75
2023/08/22 05:54:56;;;;;;;11.25;6.32;;;16.40;99.90;;;;;;5064378;27;20058;-78
2023/08/22 05:57:22;;;;;;;9.40;6.72;;;16.50;99.90;;;;;;5100354;27;20474;-79
2023/08/22 05:59:52;;;;;;;9.57;6.50;;;16.50;99.90;;;;;;5084299;27;20051;-78
2023/08/22 06:02:18;;;;;;;8.02;5.90;;;16.60;99.90;;;;;;5099050;27;20043;-78
2023/08/22 06:04:45;;;;;;;8.80;6.65;;;16.60;99.90;;;;;;5068207;27;20055;-77
2023/08/22 06:07:11;;;;;;;13.35;6.07;;;16.60;99.90;;;;;;5098547;27;20039;-78
2023/08/22 06:09:37;;;;;;;8.82;6.20;;;16.80;99.90;;;;;;5098592;27;20051;-77
2023/08/22 06:12:03;;;;;;;10.88;6.53;;;16.80;99.90;;;;;;5082084;27;20043;-77
2023/08/22 06:14:29;;;;;;;9.80;6.97;;;16.90;99.90;;;;;;5098431;27;20050;-78
2023/08/22 06:16:55;;;;;;;10.23;6.93;;;17.00;99.90;;;;;;5082813;27;20051;-78
2023/08/22 06:19:21;;;;;;;10.05;7.05;;;17.10;99.90;;;;;;5094650;27;21266;-77
2023/08/22 06:21:47;;;;;;;11.15;7.45;;;17.20;99.90;;;;;;5080262;27;20056;-79
2023/08/22 06:24:13;;;;;;;9.98;7.75;;;17.30;99.90;;;;;;5096176;27;20052;-81
2023/08/22 06:26:38;;;;;;;9.52;7.50;;;17.50;99.90;;;;;;5097517;27;20399;-80
2023/08/22 06:29:04;;;;;;;10.85;6.78;;;17.60;99.90;;;;;;5081061;27;20119;-81
2023/08/22 06:31:31;;;;;;;11.25;7.60;;;17.70;99.90;;;;;;5078425;27;20051;-80
2023/08/22 06:33:57;;;;;;;12.05;7.35;;;17.80;99.90;;;;;;5095436;27;20067;-82
2023/08/22 06:36:22;;;;;;;11.43;7.30;;;18.00;99.90;;;;;;5097190;27;20482;-80
2023/08/22 06:38:48;;;;;;;10.23;6.97;;;18.10;99.90;;;;;;5097581;27;20549;-80
2023/08/22 06:41:16;;;;;;;9.60;5.88;;;18.20;99.90;;;;;;5099956;27;20054;-81
2023/08/22 06:43:42;;;;;;;13.40;5.97;;;18.40;99.90;;;;;;5086145;27;20508;-80
2023/08/22 06:46:08;;;;;;;9.18;5.00;;;18.50;99.90;;;;;;5099250;27;20104;-80
2023/08/22 06:48:34;;;;;;;8.32;4.63;;;18.50;99.90;;;;;;5070291;27;20047;-80
2023/08/22 06:50:59;;;;;;;7.93;4.68;;;18.60;99.90;;;;;;5094733;27;20056;-81
2023/08/22 06:53:25;;;;;;;10.60;5.22;;;18.70;99.90;;;;;;5082936;27;20043;-80
2023/08/22 06:55:51;;;;;;;9.27;4.82;;;18.80;99.90;;;;;;5067825;27;20498;-80
2023/08/22 06:58:17;;;;;;;8.13;4.63;;;18.90;99.90;;;;;;5087082;27;20131;-80
2023/08/22 07:00:43;;;;;;;8.77;5.43;;;19.00;99.90;;;;;;5085198;27;20035;-81
2023/08/22 07:03:09;;;;;;;9.82;4.88;;;19.10;99.90;;;;;;5102573;27;20090;-81
2023/08/22 07:05:36;;;;;;;16.17;5.25;;;19.30;99.90;;;;;;5101276;28;20634;-80
2023/08/22 07:08:02;;;;;;;9.35;4.80;;;19.40;99.90;;;;;;5102217;28;20081;-81
2023/08/22 07:10:28;;;;;;;7.68;4.43;;;19.50;99.90;;;;;;5102804;27;20059;-81
2023/08/22 07:12:54;;;;;;;8.00;4.18;;;19.60;99.90;;;;;;5100659;27;20047;-80
2023/08/22 07:15:20;;;;;;;9.38;4.53;;;19.50;99.90;;;;;;5093454;27;20051;-81
2023/08/22 07:17:46;;;;;;;8.07;4.45;;;19.70;99.90;;;;;;5102130;27;20077;-80
2023/08/22 07:20:13;;;;;;;10.18;4.80;;;19.70;99.90;;;;;;5102172;27;20044;-81
2023/08/22 07:22:40;;;;;;;9.70;4.15;;;19.80;99.90;;;;;;5098044;27;20039;-82
2023/08/22 07:25:11;;;;;;;10.57;4.28;;;19.90;99.90;;;;;;5092936;27;20087;-82
2023/08/22 07:27:37;;;;;;;10.60;4.18;;;20.00;99.90;;;;;;5081018;27;20680;-77
2023/08/22 07:30:04;;;;;;;7.57;4.30;;;20.00;99.90;;;;;;5062962;27;20043;-77
2023/08/22 07:32:30;;;;;;;8.63;4.60;;;20.10;99.90;;;;;;5082974;27;20119;-76
2023/08/22 07:34:56;;;;;;;8.85;4.40;;;20.10;99.90;;;;;;5097675;27;20043;-82
2023/08/22 07:37:22;;;;;;;9.93;4.20;;;20.10;99.90;;;;;;5082912;27;20130;-79
2023/08/22 07:39:49;;;;;;;10.27;4.30;;;20.30;99.90;;;;;;5080695;27;20048;-75
2023/08/22 07:42:16;;;;;;;10.32;4.60;;;20.40;99.90;;;;;;5096356;27;20051;-74
2023/08/22 07:44:42;;;;;;;9.52;4.53;;;20.60;99.90;;;;;;5092003;27;20135;-75
2023/08/22 07:47:07;;;;;;;10.52;4.63;;;20.70;99.90;;;;;;5077135;27;20442;-74
2023/08/22 07:49:33;;;;;;;7.15;4.07;;;20.80;99.90;;;;;;5098729;27;20047;-75
2023/08/22 07:51:59;;;;;;;10.02;4.93;;;21.00;99.90;;;;;;5095606;27;20488;-75
2023/08/22 07:54:25;;;;;;;9.20;4.90;;;21.10;99.90;;;;;;5110856;27;20043;-75
2023/08/22 07:56:51;;;;;;;11.73;5.47;;;21.20;99.90;;;;;;5096124;27;20092;-75
2023/08/22 07:59:17;;;;;;;9.30;5.40;;;21.20;99.60;;;;;;5092664;27;20048;-76
2023/08/22 08:01:43;;;;;;;10.25;5.53;;;21.20;99.40;;;;;;5089175;27;20305;-77
2023/08/22 08:04:09;;;;;;;10.10;5.53;;;21.20;99.30;;;;;;5062206;27;20104;-78
2023/08/22 08:06:35;;;;;;;10.05;5.18;;;21.30;99.30;;;;;;5094360;27;20055;-77
2023/08/22 08:09:04;;;;;;;7.38;4.95;;;21.30;99.20;;;;;;5093461;27;20050;-77
2023/08/22 08:11:30;;;;;;;11.07;4.93;;;21.40;99.10;;;;;;5089221;27;20359;-78
2023/08/22 08:13:57;;;;;;;7.50;4.30;;;21.30;99.10;;;;;;5091080;27;20111;-77
2023/08/22 08:16:23;;;;;;;8.25;3.85;;;21.30;99.00;;;;;;5093999;27;20042;-78
2023/08/22 08:18:50;;;;;;;10.13;3.58;;;21.20;98.90;;;;;;5094229;27;20051;-78
2023/08/22 08:21:16;;;;;;;8.20;3.85;;;21.20;98.90;;;;;;5078597;27;20122;-79
2023/08/22 08:23:44;;;;;;;9.05;3.65;;;21.20;98.80;;;;;;5076467;27;20486;-77
2023/08/22 08:26:11;;;;;;;8.00;3.60;;;21.20;98.80;;;;;;5080897;27;20040;-77
2023/08/22 08:28:36;;;;;;;8.65;3.80;;;21.20;98.80;;;;;;5092789;27;20043;-79
2023/08/22 08:31:02;;;;;;;11.52;4.15;;;21.20;98.90;;;;;;5093522;27;20074;-78
2023/08/22 08:33:28;;;;;;;9.57;3.83;;;21.20;98.90;;;;;;5095747;27;20035;-79
2023/08/22 08:35:54;;;;;;;8.07;3.45;;;21.20;98.80;;;;;;5079522;27;20923;-78
2023/08/22 08:38:20;;;;;;;6.85;3.70;;;21.30;98.90;;;;;;5094386;27;20063;-78
2023/08/22 08:40:46;;;;;;;8.55;4.30;;;21.30;99.10;;;;;;5090177;27;20062;-79
2023/08/22 08:43:12;;;;;;;10.18;3.90;;;21.40;98.80;;;;;;5082842;27;20099;-78
2023/08/22 08:45:40;;;;;;;6.45;3.20;;;21.60;98.50;;;;;;5074975;27;20055;-79
2023/08/22 08:48:07;;;;;;;7.63;3.72;;;21.80;98.10;;;;;;5075898;27;20154;-79
2023/08/22 08:50:36;;;;;;;8.32;3.42;;;22.00;97.60;;;;;;5090059;27;20648;-78
2023/08/22 08:53:02;;;;;;;13.00;4.13;;;22.20;97.00;;;;;;5070320;27;20055;-80
2023/08/22 08:55:28;;;;;;;13.05;3.30;;;22.30;96.40;;;;;;5078007;27;20058;-80
2023/08/22 08:57:56;;;;;;;8.48;3.35;;;22.50;95.90;;;;;;5075802;27;20514;-79
2023/08/22 09:00:22;;;;;;;12.32;3.47;;;22.70;95.60;;;;;;5093251;27;20054;-79
2023/08/22 09:02:49;;;;;;;10.13;3.88;;;23.00;95.00;;;;;;5066116;27;20062;-80
2023/08/22 09:05:17;;;;;;;10.43;4.28;;;23.30;94.20;;;;;;5091634;27;20482;-79
2023/08/22 09:07:44;;;;;;;8.55;3.33;;;23.50;93.40;;;;;;5045721;27;20043;-80
2023/08/22 09:10:11;;;;;;;13.30;3.50;;;23.60;92.80;;;;;;5086650;27;20053;-80
2023/08/22 09:12:42;;;;;;;7.75;3.15;;;23.90;92.00;;;;;;5089029;27;20051;-79
2023/08/22 09:15:16;;;;;;;7.95;2.85;;;24.10;91.20;;;;;;5108387;27;20047;-80
2023/08/22 09:17:44;;;;;;;;;;;24.20;90.40;;;;;;5086448;27;20136;-80
2023/08/22 09:20:10;;;;;;;7.55;3.45;;;24.20;86.30;;;;;;5104108;27;19939;-79
2023/08/22 09:22:42;;;;;;;7.50;2.67;;;24.30;90.20;;;;;;5093157;27;20044;-77
2023/08/22 09:25:25;;;;;;;7.57;2.40;;;24.30;88.50;;;;;;5090482;28;20043;-78
2023/08/22 09:28:29;;;;;;;6.22;2.22;;;24.40;85.40;;;;;;5086752;27;20180;-78
2023/08/22 09:31:07;;;;;;;6.88;2.67;;;24.50;81.90;;;;;;5085792;27;20139;-78
2023/08/22 09:33:52;;;;;;;10.35;2.33;;;24.50;81.70;;;;;;5092189;27;20506;-77
2023/08/22 09:36:23;;;;;;;8.45;2.55;;;24.60;72.80;;;;;;5088464;27;20062;-77
2023/08/22 09:39:23;;;;;;;9.45;3.35;;;24.70;78.70;;;;;;5095035;27;20510;-78
2023/08/22 09:41:55;;;;;;;9.05;2.20;;;24.70;77.70;;;;;;5090657;27;20056;-78
2023/08/22 09:44:42;;;;;;;7.90;2.67;;;24.90;75.90;;;;;;5104362;27;20506;-77
2023/08/22 09:47:09;;;;;;;9.00;2.47;;;25.00;74.80;;;;;;5107950;27;20054;-77
2023/08/22 09:50:04;;;;;;;9.38;2.97;;;25.00;73.60;;;;;;5091957;27;20096;-78
2023/08/22 09:52:36;;;;;;;9.13;2.58;;;25.00;70.90;;;;;;5048202;28;20049;-78
2023/08/22 09:58:02;;;;;;;9.18;3.30;;;25.20;70.50;;;;;;5028123;28;20052;-77
2023/08/22 10:00:30;;;;;;;8.07;2.88;;;25.30;69.00;;;;;;5045220;28;20044;-76
2023/08/22 10:02:58;;;;;;;9.93;3.10;;;25.40;67.10;;;;;;5003290;28;20072;-75
2023/08/22 10:05:26;;;;;;;9.10;3.00;;;25.50;65.40;;;;;;5033654;28;20557;-75
2023/08/22 10:07:52;;;;;;;11.00;3.95;;;25.60;63.60;;;;;;5020422;28;20515;-75
2023/08/22 10:10:18;;;;;;;9.65;3.63;;;25.90;61.80;;;;;;5018922;28;20044;-74
2023/08/22 10:12:52;;;;;;;9.93;3.78;;;25.90;59.60;;;;;;5030395;28;20060;-74
2023/08/22 10:15:48;;;;;;;7.72;3.70;;;26.00;57.90;;;;;;5043958;28;20075;-75
2023/08/22 10:18:22;;;;;;;9.95;3.50;;;26.00;53.20;;;;;;5031108;28;20057;-76
2023/08/22 10:20:54;;;;;;;8.70;4.22;;;25.70;54.50;;;;;;5035574;28;20120;-76
2023/08/22 10:23:51;;;;;;;8.07;3.67;;;26.10;52.80;;;;;;5058764;27;20342;-79
2023/08/22 10:26:22;;;;;;;9.70;4.32;;;26.30;45.30;;;;;;5093179;27;20466;-75
2023/08/22 10:29:18;;;;;;;9.23;3.95;;;26.40;48.40;;;;;;5091231;27;20658;-75
2023/08/22 10:32:00;;;;;;;8.88;4.32;;;26.50;36.10;;;;;;5094130;27;20112;-77
2023/08/22 10:34:47;;;;;;;9.32;4.10;;;26.60;41.50;;;;;;5098312;27;20111;-77
2023/08/22 10:37:45;;;;;;;9.80;4.05;;;26.60;41.90;;;;;;5050394;27;20071;-76
2023/08/22 10:40:20;;;;;;;10.90;4.95;;;26.70;39.90;;;;;;5090727;27;20035;-77
2023/08/22 10:43:11;;;;;;;9.40;4.75;;;26.90;35.50;;;;;;5083035;27;20055;-77
2023/08/22 10:45:50;;;;;;;10.00;4.07;;;26.90;34.30;;;;;;5094037;27;20078;-76
2023/08/22 10:48:21;;;;;;;8.18;3.92;;;27.00;24.30;;;;;;5098038;27;20051;-78
2023/08/22 10:50:51;;;;;;;10.98;4.22;;;27.20;30.90;;;;;;5080773;27;20443;-78
2023/08/22 10:53:19;;;;;;;10.65;3.53;;;27.20;32.30;;;;;;5104752;27;20055;-78
2023/08/22 10:55:46;;;;;;;8.68;3.40;;;27.20;33.80;;;;;;5098973;27;20125;-77
2023/08/22 10:58:49;;;;;;;10.93;3.97;;;27.20;35.90;;;;;;5096905;27;20616;-78
2023/08/22 11:01:19;;;;;;;9.05;4.00;;;27.20;26.00;;;;;;5097222;27;20055;-78
2023/08/22 11:04:13;;;;;;;9.68;3.58;;;27.40;32.90;;;;;;5106418;27;20536;-78
2023/08/22 11:06:41;;;;;;;7.93;3.58;;;27.60;30.00;;;;;;5093152;27;20462;-77
2023/08/22 11:09:10;;;;;;;7.63;2.97;;;27.60;26.90;;;;;;5081776;27;20059;-78
2023/08/22 11:11:40;;;;;;;8.73;3.50;;;27.50;24.40;;;;;;5115238;27;20059;-77
2023/08/22 11:14:07;;;;;;;9.27;2.75;;;27.50;23.00;;;;;;5101004;27;20455;-78
2023/08/22 11:16:32;;;;;;;5.55;2.58;;;27.50;22.10;;;;;;5066820;27;20043;-78
2023/08/22 11:18:58;;;;;;;6.50;2.28;;;27.50;20.50;;;;;;5106487;27;20055;-77
2023/08/22 11:21:25;;;;;;;8.55;2.30;;;27.50;17.90;;;;;;5089275;27;20324;-77
2023/08/22 11:23:57;;;;;;;5.15;2.25;;;27.60;18.70;;;;;;5097893;27;21743;-78
2023/08/22 11:26:24;;;;;;;6.13;2.08;;;27.60;15.40;;;;;;5095214;27;20170;-77
2023/08/22 11:28:51;;;;;;;6.82;2.20;;;27.60;14.90;;;;;;5046490;27;20131;-77
2023/08/22 11:31:17;;;;;;;7.18;2.53;;;27.70;9.30;;;;;;5080850;27;20616;-77
2023/08/22 11:33:47;;;;;;;7.68;2.42;;;27.70;6.40;;;;;;5098477;27;20126;-77
2023/08/22 11:36:15;;;;;;;7.60;2.33;;;27.60;5.10;;;;;;5097911;27;20124;-77
2023/08/22 11:38:42;;;;;;;7.55;2.58;;;27.40;7.40;;;;;;5101259;27;20070;-77
2023/08/22 11:41:10;;;;;;;6.38;2.42;;;27.20;10.60;;;;;;5080715;27;20066;-78
2023/08/22 11:43:46;;;;;;;5.90;2.65;;;27.20;15.30;;;;;;5085965;27;20039;-77
2023/08/22 11:46:12;;;;;;;8.50;2.70;;;27.20;12.40;;;;;;5093621;27;20047;-77
2023/08/22 11:48:42;;;;;;;7.43;2.75;;;27.20;9.10;;;;;;5086084;27;20067;-77
2023/08/22 11:51:08;;;;;;;5.32;2.38;;;27.30;7.40;;;;;;5098681;27;20082;-77
2023/08/22 11:53:35;;;;;;;6.13;1.85;;;27.20;8.80;;;;;;5096199;27;20062;-77
2023/08/22 11:56:00;;;;;;;4.65;2.03;;;27.50;5.20;;;;;;5096023;27;20043;-77
2023/08/22 11:58:27;;;;;;;5.88;2.20;;;27.50;1.00;;;;;;5064929;27;20490;-77
2023/08/22 12:00:55;;;;;;;5.72;2.00;;;27.50;1.00;;;;;;5069660;27;20089;-77
2023/08/22 12:03:21;;;;;;;5.68;2.15;;;27.50;1.00;;;;;;5096149;27;20063;-77
2023/08/22 12:05:49;;;;;;;6.25;2.47;;;27.50;1.00;;;;;;5080796;27;20042;-77
2023/08/22 12:08:21;;;;;;;6.35;2.40;;;27.50;1.00;;;;;;5116181;27;20043;-77
2023/08/22 12:10:53;;;;;;;5.93;2.55;;;27.40;1.00;;;;;;5078703;27;20066;-78
2023/08/22 12:13:20;;;;;;;6.65;2.05;;;27.60;1.00;;;;;;5093741;27;20116;-77
2023/08/22 12:15:47;;;;;;;4.65;2.65;;;27.60;1.00;;;;;;5094605;28;20179;-76
2023/08/22 12:18:13;;;;;;;6.05;2.30;;;27.40;1.00;;;;;;5101100;27;20054;-75
2023/08/22 12:20:43;;;;;;;6.20;2.58;;;27.30;1.00;;;;;;5093111;27;20553;-76
2023/08/22 12:23:11;;;;;;;6.45;2.50;;;26.90;5.70;;;;;;5113552;27;20544;-76
2023/08/22 12:25:39;;;;;;;7.03;2.20;;;27.10;6.40;;;;;;5094185;27;20047;-75
2023/08/22 12:28:05;;;;;;;6.22;2.28;;;27.10;5.20;;;;;;5092935;28;20189;-75
2023/08/22 12:30:36;;;;;;;4.28;2.47;;;27.20;4.90;;;;;;5093725;27;20154;-75
2023/08/22 12:33:04;;;;;;;6.68;2.47;;;27.20;4.80;;;;;;5077344;28;20051;-76
2023/08/22 12:35:41;;;;;;;5.10;2.00;;;27.30;3.10;;;;;;5091190;27;20043;-76
2023/08/22 12:38:07;;;;;;;5.55;2.67;;;27.40;1.80;;;;;;5063372;27;20039;-75
2023/08/22 12:40:33;;;;;;;6.13;2.70;;;27.20;1.00;;;;;;5081575;27;20051;-80
2023/08/22 12:42:59;;;;;;;7.30;2.72;;;27.30;1.00;;;;;;5081381;28;20129;-81
2023/08/22 12:45:26;;;;;;;5.35;2.58;;;27.30;1.00;;;;;;5079239;28;20048;-80
2023/08/22 12:47:52;;;;;;;6.63;2.20;;;27.30;1.00;;;;;;5097282;28;20054;-81
2023/08/22 12:50:17;;;;;;;5.18;2.10;;;27.20;1.00;;;;;;5072409;28;20035;-81
2023/08/22 12:52:43;;;;;;;7.00;2.25;;;27.20;1.00;;;;;;5070800;28;20059;-81
2023/08/22 12:55:09;;;;;;;4.78;2.35;;;27.20;1.00;;;;;;5086888;28;20131;-81